sensor_id;sensor_type;location;lat;lon;timestamp;temperature;humidity
16200;DHT22;8207;52.494;4.654;2022-12-29T00:01:26;11.40;99.90
16200;DHT22;8207;52.494;4.654;2022-12-29T00:03:53;11.40;99.90
16200;DHT22;8207;52.494;4.654;2022-12-29T00:06:21;11.40;99.90
16200;DHT22;8207;52.494;4.654;2022-12-29T00:08:48;11.40;99.90
16200;DHT22;8207;52.494;4.654;2022-12-29T00:11:18;11.40;99.90
16200;DHT22;8207;52.494;4.654;2022-12-29T00:13:45;11.40;99.90
16200;DHT22;8207;52.494;4.654;2022-12-29T00:16:30;11.40;99.90
16200;DHT22;8207;52.494;4.654;2022-12-29T00:19:00;11.40;99.90
16200;DHT22;8207;52.494;4.654;2022-12-29T00:21:28;11.40;99.90
16200;DHT22;8207;52.494;4.654;2022-12-29T00:24:15;11.40;99.90
16200;DHT22;8207;52.494;4.654;2022-12-29T00:27:10;11.40;99.90
16200;DHT22;8207;52.494;4.654;2022-12-29T00:29:54;11.40;99.90
16200;DHT22;8207;52.494;4.654;2022-12-29T00:32:39;11.30;99.90
16200;DHT22;8207;52.494;4.654;2022-12-29T00:35:28;11.30;99.90
16200;DHT22;8207;52.494;4.654;2022-12-29T00:37:59;11.30;99.90
16200;DHT22;8207;52.494;4.654;2022-12-29T00:40:45;11.30;99.90
16200;DHT22;8207;52.494;4.654;2022-12-29T00:43:29;11.20;99.90
16200;DHT22;8207;52.494;4.654;2022-12-29T00:46:13;11.20;99.90
16200;DHT22;8207;52.494;4.654;2022-12-29T00:48:40;11.20;99.90
16200;DHT22;8207;52.494;4.654;2022-12-29T00:51:24;11.20;99.90
16200;DHT22;8207;52.494;4.654;2022-12-29T00:53:54;11.20;99.90
16200;DHT22;8207;52.494;4.654;2022-12-29T00:56:21;11.20;99.90
16200;DHT22;8207;52.494;4.654;2022-12-29T00:58:48;11.10;99.90
16200;DHT22;8207;52.494;4.654;2022-12-29T01:01:15;11.10;99.90
16200;DHT22;8207;52.494;4.654;2022-12-29T01:03:42;11.10;99.90
16200;DHT22;8207;52.494;4.654;2022-12-29T01:06:10;11.10;99.90
16200;DHT22;8207;52.494;4.654;2022-12-29T01:08:37;11.10;99.90
16200;DHT22;8207;52.494;4.654;2022-12-29T01:11:07;11.10;99.90
16200;DHT22;8207;52.494;4.654;2022-12-29T01:13:34;11.10;99.90
16200;DHT22;8207;52.494;4.654;2022-12-29T01:16:02;11.10;99.90
16200;DHT22;8207;52.494;4.654;2022-12-29T01:18:29;11.10;99.90
16200;DHT22;8207;52.494;4.654;2022-12-29T01:21:00;11.10;99.90
16200;DHT22;8207;52.494;4.654;2022-12-29T01:23:28;11.10;99.90
16200;DHT22;8207;52.494;4.654;2022-12-29T01:25:55;11.10;99.90
16200;DHT22;8207;52.494;4.654;2022-12-29T01:28:24;11.10;99.90
16200;DHT22;8207;52.494;4.654;2022-12-29T01:30:51;11.10;99.90
16200;DHT22;8207;52.494;4.654;2022-12-29T01:33:18;11.10;99.90
16200;DHT22;8207;52.494;4.654;2022-12-29T01:35:45;11.10;99.90
16200;DHT22;8207;52.494;4.654;2022-12-29T01:38:11;11.10;99.90
16200;DHT22;8207;52.494;4.654;2022-12-29T01:40:45;11.10;99.90
16200;DHT22;8207;52.494;4.654;2022-12-29T01:43:13;11.10;99.90
16200;DHT22;8207;52.494;4.654;2022-12-29T01:45:45;11.00;99.90
16200;DHT22;8207;52.494;4.654;2022-12-29T01:48:15;11.00;99.90
16200;DHT22;8207;52.494;4.654;2022-12-29T01:50:45;11.00;99.90
16200;DHT22;8207;52.494;4.654;2022-12-29T01:53:17;10.90;99.90
16200;DHT22;8207;52.494;4.654;2022-12-29T01:55:48;10.80;99.90
16200;DHT22;8207;52.494;4.654;2022-12-29T01:58:18;10.80;99.90
16200;DHT22;8207;52.494;4.654;2022-12-29T02:00:48;10.70;99.90
16200;DHT22;8207;52.494;4.654;2022-12-29T02:03:15;10.60;99.90
16200;DHT22;8207;52.494;4.654;2022-12-29T02:05:47;10.60;99.90
16200;DHT22;8207;52.494;4.654;2022-12-29T02:08:15;10.50;99.90
16200;DHT22;8207;52.494;4.654;2022-12-29T02:10:43;10.50;99.90
16200;DHT22;8207;52.494;4.654;2022-12-29T02:13:11;10.50;99.90
16200;DHT22;8207;52.494;4.654;2022-12-29T02:15:50;10.50;99.90
16200;DHT22;8207;52.494;4.654;2022-12-29T02:18:28;10.40;99.90
16200;DHT22;8207;52.494;4.654;2022-12-29T02:21:23;10.40;99.90
16200;DHT22;8207;52.494;4.654;2022-12-29T02:27:36;10.40;99.90
16200;DHT22;8207;52.494;4.654;2022-12-29T02:30:14;10.40;99.90
16200;DHT22;8207;52.494;4.654;2022-12-29T02:32:50;10.40;99.90
16200;DHT22;8207;52.494;4.654;2022-12-29T02:35:25;10.40;99.90
16200;DHT22;8207;52.494;4.654;2022-12-29T02:38:02;10.40;99.90
16200;DHT22;8207;52.494;4.654;2022-12-29T02:40:36;10.40;99.90
16200;DHT22;8207;52.494;4.654;2022-12-29T02:43:11;10.40;99.90
16200;DHT22;8207;52.494;4.654;2022-12-29T02:45:47;10.40;99.90
16200;DHT22;8207;52.494;4.654;2022-12-29T02:48:20;10.40;99.90
16200;DHT22;8207;52.494;4.654;2022-12-29T02:50:52;10.40;99.90
16200;DHT22;8207;52.494;4.654;2022-12-29T02:53:21;10.30;99.90
16200;DHT22;8207;52.494;4.654;2022-12-29T02:56:04;10.30;99.90
16200;DHT22;8207;52.494;4.654;2022-12-29T02:58:31;10.30;99.90
16200;DHT22;8207;52.494;4.654;2022-12-29T03:01:13;10.20;99.90
16200;DHT22;8207;52.494;4.654;2022-12-29T03:03:52;10.20;99.90
16200;DHT22;8207;52.494;4.654;2022-12-29T03:06:33;10.10;99.90
16200;DHT22;8207;52.494;4.654;2022-12-29T03:09:08;10.10;99.90
16200;DHT22;8207;52.494;4.654;2022-12-29T03:11:45;10.10;99.90
16200;DHT22;8207;52.494;4.654;2022-12-29T03:14:33;10.10;99.90
16200;DHT22;8207;52.494;4.654;2022-12-29T03:17:24;10.00;99.90
16200;DHT22;8207;52.494;4.654;2022-12-29T03:20:01;10.00;99.90
16200;DHT22;8207;52.494;4.654;2022-12-29T03:22:30;10.00;99.90
16200;DHT22;8207;52.494;4.654;2022-12-29T03:25:02;10.00;99.90
16200;DHT22;8207;52.494;4.654;2022-12-29T03:27:35;10.00;99.90
16200;DHT22;8207;52.494;4.654;2022-12-29T03:30:05;10.00;99.90
16200;DHT22;8207;52.494;4.654;2022-12-29T03:32:38;10.00;99.90
16200;DHT22;8207;52.494;4.654;2022-12-29T03:35:09;10.00;99.90
16200;DHT22;8207;52.494;4.654;2022-12-29T03:37:40;10.00;99.90
16200;DHT22;8207;52.494;4.654;2022-12-29T03:40:09;9.90;99.90
16200;DHT22;8207;52.494;4.654;2022-12-29T03:42:37;10.00;99.90
16200;DHT22;8207;52.494;4.654;2022-12-29T03:45:07;10.00;99.90
16200;DHT22;8207;52.494;4.654;2022-12-29T03:47:34;10.00;99.90
16200;DHT22;8207;52.494;4.654;2022-12-29T03:50:01;10.00;99.90
16200;DHT22;8207;52.494;4.654;2022-12-29T03:52:29;10.10;99.90
16200;DHT22;8207;52.494;4.654;2022-12-29T03:54:56;10.10;99.90
16200;DHT22;8207;52.494;4.654;2022-12-29T03:57:23;10.10;99.90
16200;DHT22;8207;52.494;4.654;2022-12-29T03:59:50;10.10;99.90
16200;DHT22;8207;52.494;4.654;2022-12-29T04:02:17;10.10;99.90
16200;DHT22;8207;52.494;4.654;2022-12-29T04:04:44;10.10;99.90
16200;DHT22;8207;52.494;4.654;2022-12-29T04:07:10;10.10;99.90
16200;DHT22;8207;52.494;4.654;2022-12-29T04:09:39;10.10;99.90
16200;DHT22;8207;52.494;4.654;2022-12-29T04:12:06;10.10;99.90
16200;DHT22;8207;52.494;4.654;2022-12-29T04:14:32;10.10;99.90
16200;DHT22;8207;52.494;4.654;2022-12-29T04:16:59;10.10;99.90
16200;DHT22;8207;52.494;4.654;2022-12-29T04:19:26;10.00;99.90
16200;DHT22;8207;52.494;4.654;2022-12-29T04:21:53;10.00;99.90
16200;DHT22;8207;52.494;4.654;2022-12-29T04:24:20;10.00;99.90
16200;DHT22;8207;52.494;4.654;2022-12-29T04:26:49;10.00;99.90
16200;DHT22;8207;52.494;4.654;2022-12-29T04:29:15;10.10;99.90
16200;DHT22;8207;52.494;4.654;2022-12-29T04:31:42;10.10;99.90
16200;DHT22;8207;52.494;4.654;2022-12-29T04:34:09;10.10;99.90
16200;DHT22;8207;52.494;4.654;2022-12-29T04:36:36;10.10;99.90
16200;DHT22;8207;52.494;4.654;2022-12-29T04:39:05;10.10;99.90
16200;DHT22;8207;52.494;4.654;2022-12-29T04:41:32;10.00;99.90
16200;DHT22;8207;52.494;4.654;2022-12-29T04:44:00;10.00;99.90
16200;DHT22;8207;52.494;4.654;2022-12-29T04:46:27;10.00;99.90
16200;DHT22;8207;52.494;4.654;2022-12-29T04:48:54;9.90;99.90
16200;DHT22;8207;52.494;4.654;2022-12-29T04:51:21;9.90;99.90
16200;DHT22;8207;52.494;4.654;2022-12-29T04:53:48;9.90;99.90
16200;DHT22;8207;52.494;4.654;2022-12-29T04:56:15;9.90;99.90
16200;DHT22;8207;52.494;4.654;2022-12-29T04:58:42;9.90;99.90
16200;DHT22;8207;52.494;4.654;2022-12-29T05:01:10;9.90;99.90
16200;DHT22;8207;52.494;4.654;2022-12-29T05:03:37;9.90;99.90
16200;DHT22;8207;52.494;4.654;2022-12-29T05:06:04;9.90;99.90
16200;DHT22;8207;52.494;4.654;2022-12-29T05:08:31;9.90;99.90
16200;DHT22;8207;52.494;4.654;2022-12-29T05:10:58;9.90;99.90
16200;DHT22;8207;52.494;4.654;2022-12-29T05:13:25;9.90;99.90
16200;DHT22;8207;52.494;4.654;2022-12-29T05:15:52;9.80;99.90
16200;DHT22;8207;52.494;4.654;2022-12-29T05:18:21;9.80;99.90
16200;DHT22;8207;52.494;4.654;2022-12-29T05:20:48;9.90;99.90
16200;DHT22;8207;52.494;4.654;2022-12-29T05:23:15;9.90;99.90
16200;DHT22;8207;52.494;4.654;2022-12-29T05:25:43;9.80;99.90
16200;DHT22;8207;52.494;4.654;2022-12-29T05:28:11;9.80;99.90
16200;DHT22;8207;52.494;4.654;2022-12-29T05:30:39;9.80;99.90
16200;DHT22;8207;52.494;4.654;2022-12-29T05:33:06;9.80;99.90
16200;DHT22;8207;52.494;4.654;2022-12-29T05:35:34;9.70;99.90
16200;DHT22;8207;52.494;4.654;2022-12-29T05:38:01;9.70;99.90
16200;DHT22;8207;52.494;4.654;2022-12-29T05:40:28;9.70;99.90
16200;DHT22;8207;52.494;4.654;2022-12-29T05:42:55;9.70;99.90
16200;DHT22;8207;52.494;4.654;2022-12-29T05:45:22;9.70;99.90
16200;DHT22;8207;52.494;4.654;2022-12-29T05:47:48;9.70;99.90
16200;DHT22;8207;52.494;4.654;2022-12-29T05:50:15;9.70;99.90
16200;DHT22;8207;52.494;4.654;2022-12-29T05:52:44;9.80;99.90
16200;DHT22;8207;52.494;4.654;2022-12-29T05:55:11;9.70;99.90
16200;DHT22;8207;52.494;4.654;2022-12-29T05:57:38;9.70;99.90
16200;DHT22;8207;52.494;4.654;2022-12-29T06:00:07;9.70;99.90
16200;DHT22;8207;52.494;4.654;2022-12-29T06:02:34;9.70;99.90
16200;DHT22;8207;52.494;4.654;2022-12-29T06:05:01;9.70;99.90
16200;DHT22;8207;52.494;4.654;2022-12-29T06:07:27;9.70;99.90
16200;DHT22;8207;52.494;4.654;2022-12-29T06:09:56;9.70;99.90
16200;DHT22;8207;52.494;4.654;2022-12-29T06:12:23;9.70;99.90
16200;DHT22;8207;52.494;4.654;2022-12-29T06:14:50;9.70;99.90
16200;DHT22;8207;52.494;4.654;2022-12-29T06:17:16;9.70;99.90
16200;DHT22;8207;52.494;4.654;2022-12-29T06:19:43;9.60;99.90
16200;DHT22;8207;52.494;4.654;2022-12-29T06:22:10;9.60;99.90
16200;DHT22;8207;52.494;4.654;2022-12-29T06:24:39;9.70;99.90
16200;DHT22;8207;52.494;4.654;2022-12-29T06:27:07;9.60;99.90
16200;DHT22;8207;52.494;4.654;2022-12-29T06:29:34;9.70;99.90
16200;DHT22;8207;52.494;4.654;2022-12-29T06:32:03;9.70;99.90
16200;DHT22;8207;52.494;4.654;2022-12-29T06:34:30;9.70;99.90
16200;DHT22;8207;52.494;4.654;2022-12-29T06:36:57;9.70;99.90
16200;DHT22;8207;52.494;4.654;2022-12-29T06:39:24;9.80;99.90
16200;DHT22;8207;52.494;4.654;2022-12-29T06:41:52;9.80;99.90
16200;DHT22;8207;52.494;4.654;2022-12-29T06:44:21;9.70;99.90
16200;DHT22;8207;52.494;4.654;2022-12-29T06:46:48;9.70;99.90
16200;DHT22;8207;52.494;4.654;2022-12-29T06:49:15;9.70;99.90
16200;DHT22;8207;52.494;4.654;2022-12-29T06:51:42;9.70;99.90
16200;DHT22;8207;52.494;4.654;2022-12-29T06:54:09;9.70;99.90
16200;DHT22;8207;52.494;4.654;2022-12-29T06:56:36;9.70;99.90
16200;DHT22;8207;52.494;4.654;2022-12-29T06:59:03;9.60;99.90
16200;DHT22;8207;52.494;4.654;2022-12-29T07:01:32;9.60;99.90
16200;DHT22;8207;52.494;4.654;2022-12-29T07:03:59;9.60;99.90
16200;DHT22;8207;52.494;4.654;2022-12-29T07:06:26;9.60;99.90
16200;DHT22;8207;52.494;4.654;2022-12-29T07:08:53;9.60;99.90
16200;DHT22;8207;52.494;4.654;2022-12-29T07:11:23;9.60;99.90
16200;DHT22;8207;52.494;4.654;2022-12-29T07:13:50;9.60;99.90
16200;DHT22;8207;52.494;4.654;2022-12-29T07:16:17;9.50;99.90
16200;DHT22;8207;52.494;4.654;2022-12-29T07:18:46;9.50;99.90
16200;DHT22;8207;52.494;4.654;2022-12-29T07:21:12;9.50;99.90
16200;DHT22;8207;52.494;4.654;2022-12-29T07:23:39;9.60;99.90
16200;DHT22;8207;52.494;4.654;2022-12-29T07:26:08;9.60;99.90
16200;DHT22;8207;52.494;4.654;2022-12-29T07:28:36;9.60;99.90
16200;DHT22;8207;52.494;4.654;2022-12-29T07:31:05;9.60;99.90
16200;DHT22;8207;52.494;4.654;2022-12-29T07:33:32;9.70;99.90
16200;DHT22;8207;52.494;4.654;2022-12-29T07:36:00;9.70;99.90
16200;DHT22;8207;52.494;4.654;2022-12-29T07:38:27;9.80;99.90
16200;DHT22;8207;52.494;4.654;2022-12-29T07:40:57;9.80;99.90
16200;DHT22;8207;52.494;4.654;2022-12-29T07:43:24;9.80;99.90
16200;DHT22;8207;52.494;4.654;2022-12-29T07:45:51;9.80;99.90
16200;DHT22;8207;52.494;4.654;2022-12-29T07:48:18;9.80;99.90
16200;DHT22;8207;52.494;4.654;2022-12-29T07:50:45;9.80;99.90
16200;DHT22;8207;52.494;4.654;2022-12-29T07:53:14;9.80;99.90
16200;DHT22;8207;52.494;4.654;2022-12-29T07:55:41;9.80;99.90
16200;DHT22;8207;52.494;4.654;2022-12-29T07:58:08;9.80;99.90
16200;DHT22;8207;52.494;4.654;2022-12-29T08:00:35;9.80;99.90
16200;DHT22;8207;52.494;4.654;2022-12-29T08:03:03;9.80;99.90
16200;DHT22;8207;52.494;4.654;2022-12-29T08:05:31;9.80;99.90
16200;DHT22;8207;52.494;4.654;2022-12-29T08:07:58;9.80;99.90
16200;DHT22;8207;52.494;4.654;2022-12-29T08:10:26;9.80;99.90
16200;DHT22;8207;52.494;4.654;2022-12-29T08:12:53;9.80;99.90
16200;DHT22;8207;52.494;4.654;2022-12-29T08:15:20;9.90;99.90
16200;DHT22;8207;52.494;4.654;2022-12-29T08:17:47;9.90;99.90
16200;DHT22;8207;52.494;4.654;2022-12-29T08:20:14;9.90;99.90
16200;DHT22;8207;52.494;4.654;2022-12-29T08:22:41;10.00;99.90
16200;DHT22;8207;52.494;4.654;2022-12-29T08:25:09;10.00;99.90
16200;DHT22;8207;52.494;4.654;2022-12-29T08:27:37;10.00;99.90
16200;DHT22;8207;52.494;4.654;2022-12-29T08:30:05;9.90;99.90
16200;DHT22;8207;52.494;4.654;2022-12-29T08:32:32;9.90;99.90
16200;DHT22;8207;52.494;4.654;2022-12-29T08:34:59;9.90;99.90
16200;DHT22;8207;52.494;4.654;2022-12-29T08:37:26;9.90;99.90
16200;DHT22;8207;52.494;4.654;2022-12-29T08:39:53;9.90;99.90
16200;DHT22;8207;52.494;4.654;2022-12-29T08:42:20;9.90;99.90
16200;DHT22;8207;52.494;4.654;2022-12-29T08:44:48;9.80;99.90
16200;DHT22;8207;52.494;4.654;2022-12-29T08:47:15;9.80;99.90
16200;DHT22;8207;52.494;4.654;2022-12-29T08:49:42;9.80;99.90
16200;DHT22;8207;52.494;4.654;2022-12-29T08:52:09;9.80;99.90
16200;DHT22;8207;52.494;4.654;2022-12-29T08:54:36;9.70;99.90
16200;DHT22;8207;52.494;4.654;2022-12-29T08:57:03;9.70;99.90
16200;DHT22;8207;52.494;4.654;2022-12-29T08:59:30;9.70;99.90
16200;DHT22;8207;52.494;4.654;2022-12-29T09:01:58;9.70;99.90
16200;DHT22;8207;52.494;4.654;2022-12-29T09:04:25;9.70;99.90
16200;DHT22;8207;52.494;4.654;2022-12-29T09:06:52;9.70;99.90
16200;DHT22;8207;52.494;4.654;2022-12-29T09:09:19;9.70;99.90
16200;DHT22;8207;52.494;4.654;2022-12-29T09:11:47;9.70;99.90
16200;DHT22;8207;52.494;4.654;2022-12-29T09:14:13;9.80;99.90
16200;DHT22;8207;52.494;4.654;2022-12-29T09:16:40;9.80;99.90
16200;DHT22;8207;52.494;4.654;2022-12-29T09:19:26;9.80;99.90
16200;DHT22;8207;52.494;4.654;2022-12-29T09:21:53;9.80;99.90
16200;DHT22;8207;52.494;4.654;2022-12-29T09:24:20;9.80;99.90
16200;DHT22;8207;52.494;4.654;2022-12-29T09:26:49;9.80;99.90
16200;DHT22;8207;52.494;4.654;2022-12-29T09:29:22;9.80;99.90
16200;DHT22;8207;52.494;4.654;2022-12-29T09:31:57;9.80;99.90
16200;DHT22;8207;52.494;4.654;2022-12-29T09:34:35;9.80;99.90
16200;DHT22;8207;52.494;4.654;2022-12-29T09:37:05;9.80;99.90
16200;DHT22;8207;52.494;4.654;2022-12-29T09:39:34;9.80;99.90
16200;DHT22;8207;52.494;4.654;2022-12-29T09:42:11;9.90;99.90
16200;DHT22;8207;52.494;4.654;2022-12-29T09:44:59;9.90;99.90
16200;DHT22;8207;52.494;4.654;2022-12-29T09:47:28;9.90;99.90
16200;DHT22;8207;52.494;4.654;2022-12-29T09:50:02;9.90;99.90
16200;DHT22;8207;52.494;4.654;2022-12-29T09:52:32;9.90;99.90
16200;DHT22;8207;52.494;4.654;2022-12-29T09:55:04;10.00;99.90
16200;DHT22;8207;52.494;4.654;2022-12-29T09:57:42;10.00;99.90
16200;DHT22;8207;52.494;4.654;2022-12-29T10:00:13;10.00;99.90
16200;DHT22;8207;52.494;4.654;2022-12-29T10:02:44;9.90;99.90
16200;DHT22;8207;52.494;4.654;2022-12-29T10:05:24;9.90;99.90
16200;DHT22;8207;52.494;4.654;2022-12-29T10:08:03;9.90;99.90
16200;DHT22;8207;52.494;4.654;2022-12-29T10:10:36;9.80;99.90
16200;DHT22;8207;52.494;4.654;2022-12-29T10:13:16;9.80;99.90
16200;DHT22;8207;52.494;4.654;2022-12-29T10:15:54;9.80;99.90
16200;DHT22;8207;52.494;4.654;2022-12-29T10:18:48;9.80;99.90
16200;DHT22;8207;52.494;4.654;2022-12-29T10:21:28;9.80;99.90
16200;DHT22;8207;52.494;4.654;2022-12-29T10:23:59;9.90;99.90
16200;DHT22;8207;52.494;4.654;2022-12-29T10:26:31;9.90;99.90
16200;DHT22;8207;52.494;4.654;2022-12-29T10:29:04;9.90;99.90
16200;DHT22;8207;52.494;4.654;2022-12-29T10:31:37;9.90;99.90
16200;DHT22;8207;52.494;4.654;2022-12-29T10:34:15;10.00;99.90
16200;DHT22;8207;52.494;4.654;2022-12-29T10:36:47;10.00;99.90
16200;DHT22;8207;52.494;4.654;2022-12-29T10:39:20;10.00;99.90
16200;DHT22;8207;52.494;4.654;2022-12-29T10:41:51;10.00;99.90
16200;DHT22;8207;52.494;4.654;2022-12-29T10:44:20;9.90;99.90
16200;DHT22;8207;52.494;4.654;2022-12-29T10:46:55;9.90;99.90
16200;DHT22;8207;52.494;4.654;2022-12-29T10:49:25;10.00;99.90
16200;DHT22;8207;52.494;4.654;2022-12-29T10:51:58;10.00;99.90
16200;DHT22;8207;52.494;4.654;2022-12-29T10:54:28;10.10;99.90
16200;DHT22;8207;52.494;4.654;2022-12-29T10:57:01;10.10;99.90
16200;DHT22;8207;52.494;4.654;2022-12-29T10:59:31;10.20;99.90
16200;DHT22;8207;52.494;4.654;2022-12-29T11:02:17;10.20;99.90
16200;DHT22;8207;52.494;4.654;2022-12-29T11:04:54;10.30;99.90
16200;DHT22;8207;52.494;4.654;2022-12-29T11:07:31;10.30;99.90
16200;DHT22;8207;52.494;4.654;2022-12-29T11:10:17;10.40;99.90
16200;DHT22;8207;52.494;4.654;2022-12-29T11:12:56;10.30;99.90
16200;DHT22;8207;52.494;4.654;2022-12-29T11:15:23;10.30;99.90
16200;DHT22;8207;52.494;4.654;2022-12-29T11:17:52;10.40;99.90
16200;DHT22;8207;52.494;4.654;2022-12-29T11:20:28;10.40;99.90
16200;DHT22;8207;52.494;4.654;2022-12-29T11:22:57;10.40;99.90
16200;DHT22;8207;52.494;4.654;2022-12-29T11:25:25;10.40;99.90
16200;DHT22;8207;52.494;4.654;2022-12-29T11:27:56;10.30;99.90
16200;DHT22;8207;52.494;4.654;2022-12-29T11:30:25;10.30;99.90
16200;DHT22;8207;52.494;4.654;2022-12-29T11:32:53;10.30;99.90
16200;DHT22;8207;52.494;4.654;2022-12-29T11:35:30;10.30;99.90
16200;DHT22;8207;52.494;4.654;2022-12-29T11:38:00;10.30;99.90
16200;DHT22;8207;52.494;4.654;2022-12-29T11:40:28;10.30;99.90
16200;DHT22;8207;52.494;4.654;2022-12-29T11:42:57;10.40;99.90
16200;DHT22;8207;52.494;4.654;2022-12-29T11:45:26;10.40;99.90
16200;DHT22;8207;52.494;4.654;2022-12-29T11:47:56;10.50;99.90
16200;DHT22;8207;52.494;4.654;2022-12-29T11:50:26;10.50;99.90
16200;DHT22;8207;52.494;4.654;2022-12-29T11:53:00;10.50;99.90
16200;DHT22;8207;52.494;4.654;2022-12-29T11:55:28;10.50;99.90
16200;DHT22;8207;52.494;4.654;2022-12-29T11:57:58;10.50;99.90
16200;DHT22;8207;52.494;4.654;2022-12-29T12:00:27;10.40;99.90
16200;DHT22;8207;52.494;4.654;2022-12-29T12:02:58;10.50;99.90
16200;DHT22;8207;52.494;4.654;2022-12-29T12:05:36;10.50;99.90
16200;DHT22;8207;52.494;4.654;2022-12-29T12:08:10;10.50;99.90
16200;DHT22;8207;52.494;4.654;2022-12-29T12:10:43;10.60;99.90
16200;DHT22;8207;52.494;4.654;2022-12-29T12:13:24;10.70;99.90
16200;DHT22;8207;52.494;4.654;2022-12-29T12:15:57;10.70;99.90
16200;DHT22;8207;52.494;4.654;2022-12-29T12:18:34;10.80;99.90
16200;DHT22;8207;52.494;4.654;2022-12-29T12:21:09;10.80;99.90
16200;DHT22;8207;52.494;4.654;2022-12-29T12:23:51;10.90;99.90
16200;DHT22;8207;52.494;4.654;2022-12-29T12:26:23;10.90;99.90
16200;DHT22;8207;52.494;4.654;2022-12-29T12:28:58;10.80;99.90
16200;DHT22;8207;52.494;4.654;2022-12-29T12:31:43;10.80;99.90
16200;DHT22;8207;52.494;4.654;2022-12-29T12:34:17;10.80;99.90
16200;DHT22;8207;52.494;4.654;2022-12-29T12:37:15;10.80;99.90
16200;DHT22;8207;52.494;4.654;2022-12-29T12:40:00;10.80;99.90
16200;DHT22;8207;52.494;4.654;2022-12-29T12:42:40;10.70;99.90
16200;DHT22;8207;52.494;4.654;2022-12-29T12:45:46;10.70;99.90
16200;DHT22;8207;52.494;4.654;2022-12-29T12:48:36;10.70;99.90
16200;DHT22;8207;52.494;4.654;2022-12-29T12:51:14;10.70;99.90
16200;DHT22;8207;52.494;4.654;2022-12-29T12:53:50;10.70;99.90
16200;DHT22;8207;52.494;4.654;2022-12-29T12:56:37;10.70;99.90
16200;DHT22;8207;52.494;4.654;2022-12-29T12:59:30;10.70;99.90
16200;DHT22;8207;52.494;4.654;2022-12-29T13:02:03;10.80;99.90
16200;DHT22;8207;52.494;4.654;2022-12-29T13:04:52;10.80;99.90
16200;DHT22;8207;52.494;4.654;2022-12-29T13:07:32;10.70;99.90
16200;DHT22;8207;52.494;4.654;2022-12-29T13:10:19;10.70;99.90
16200;DHT22;8207;52.494;4.654;2022-12-29T13:12:55;10.70;99.90
16200;DHT22;8207;52.494;4.654;2022-12-29T13:15:38;10.70;99.90
16200;DHT22;8207;52.494;4.654;2022-12-29T13:18:14;10.70;99.90
16200;DHT22;8207;52.494;4.654;2022-12-29T13:20:47;10.70;99.90
16200;DHT22;8207;52.494;4.654;2022-12-29T13:23:22;10.70;99.90
16200;DHT22;8207;52.494;4.654;2022-12-29T13:25:58;10.70;99.90
16200;DHT22;8207;52.494;4.654;2022-12-29T13:28:34;10.60;99.90
16200;DHT22;8207;52.494;4.654;2022-12-29T13:31:11;10.60;99.90
16200;DHT22;8207;52.494;4.654;2022-12-29T13:33:46;10.50;99.90
16200;DHT22;8207;52.494;4.654;2022-12-29T13:36:21;10.50;99.90
16200;DHT22;8207;52.494;4.654;2022-12-29T13:38:54;10.50;99.90
16200;DHT22;8207;52.494;4.654;2022-12-29T13:41:29;10.50;99.90
16200;DHT22;8207;52.494;4.654;2022-12-29T13:44:01;10.50;99.90
16200;DHT22;8207;52.494;4.654;2022-12-29T13:46:33;10.50;99.90
16200;DHT22;8207;52.494;4.654;2022-12-29T13:49:04;10.40;99.90
16200;DHT22;8207;52.494;4.654;2022-12-29T13:51:34;10.40;99.90
16200;DHT22;8207;52.494;4.654;2022-12-29T13:54:10;10.40;99.90
16200;DHT22;8207;52.494;4.654;2022-12-29T13:56:40;10.40;99.90
16200;DHT22;8207;52.494;4.654;2022-12-29T13:59:17;10.40;99.90
16200;DHT22;8207;52.494;4.654;2022-12-29T14:01:50;10.30;99.90
16200;DHT22;8207;52.494;4.654;2022-12-29T14:04:22;10.30;99.90
16200;DHT22;8207;52.494;4.654;2022-12-29T14:07:00;10.30;99.90
16200;DHT22;8207;52.494;4.654;2022-12-29T14:09:41;10.30;99.90
16200;DHT22;8207;52.494;4.654;2022-12-29T14:12:29;10.30;99.90
16200;DHT22;8207;52.494;4.654;2022-12-29T14:18:11;10.20;99.90
16200;DHT22;8207;52.494;4.654;2022-12-29T14:20:50;10.10;99.90
16200;DHT22;8207;52.494;4.654;2022-12-29T14:23:27;10.10;99.90
16200;DHT22;8207;52.494;4.654;2022-12-29T14:26:14;10.10;99.90
16200;DHT22;8207;52.494;4.654;2022-12-29T14:28:43;10.10;99.90
16200;DHT22;8207;52.494;4.654;2022-12-29T14:31:36;10.10;99.90
16200;DHT22;8207;52.494;4.654;2022-12-29T14:34:29;10.10;99.90
16200;DHT22;8207;52.494;4.654;2022-12-29T14:36:58;10.00;99.90
16200;DHT22;8207;52.494;4.654;2022-12-29T14:39:36;10.00;99.90
16200;DHT22;8207;52.494;4.654;2022-12-29T14:42:06;10.00;99.90
16200;DHT22;8207;52.494;4.654;2022-12-29T14:44:33;10.00;99.90
16200;DHT22;8207;52.494;4.654;2022-12-29T14:47:05;9.90;99.90
16200;DHT22;8207;52.494;4.654;2022-12-29T14:49:41;9.90;99.90
16200;DHT22;8207;52.494;4.654;2022-12-29T14:52:17;9.90;99.90
16200;DHT22;8207;52.494;4.654;2022-12-29T14:54:51;9.90;99.90
16200;DHT22;8207;52.494;4.654;2022-12-29T14:57:34;9.80;99.90
16200;DHT22;8207;52.494;4.654;2022-12-29T15:00:17;9.80;99.90
16200;DHT22;8207;52.494;4.654;2022-12-29T15:02:50;9.80;99.90
16200;DHT22;8207;52.494;4.654;2022-12-29T15:05:35;9.70;99.90
16200;DHT22;8207;52.494;4.654;2022-12-29T15:08:04;9.70;99.90
16200;DHT22;8207;52.494;4.654;2022-12-29T15:10:37;9.60;99.90
16200;DHT22;8207;52.494;4.654;2022-12-29T15:13:09;9.60;99.90
16200;DHT22;8207;52.494;4.654;2022-12-29T15:15:39;9.60;99.90
16200;DHT22;8207;52.494;4.654;2022-12-29T15:18:24;9.60;99.90
16200;DHT22;8207;52.494;4.654;2022-12-29T15:20:54;9.60;99.90
16200;DHT22;8207;52.494;4.654;2022-12-29T15:23:22;9.60;99.90
16200;DHT22;8207;52.494;4.654;2022-12-29T15:25:54;9.50;99.90
16200;DHT22;8207;52.494;4.654;2022-12-29T15:28:22;9.50;99.90
16200;DHT22;8207;52.494;4.654;2022-12-29T15:30:55;9.40;99.90
16200;DHT22;8207;52.494;4.654;2022-12-29T15:33:26;9.40;99.90
16200;DHT22;8207;52.494;4.654;2022-12-29T15:35:55;9.40;99.90
16200;DHT22;8207;52.494;4.654;2022-12-29T15:38:23;9.40;99.90
16200;DHT22;8207;52.494;4.654;2022-12-29T15:40:54;9.30;99.90
16200;DHT22;8207;52.494;4.654;2022-12-29T15:43:42;9.30;99.90
16200;DHT22;8207;52.494;4.654;2022-12-29T15:46:13;9.30;99.90
16200;DHT22;8207;52.494;4.654;2022-12-29T15:48:42;9.30;99.90
16200;DHT22;8207;52.494;4.654;2022-12-29T15:51:17;9.30;99.90
16200;DHT22;8207;52.494;4.654;2022-12-29T15:53:47;9.30;99.90
16200;DHT22;8207;52.494;4.654;2022-12-29T15:56:15;9.20;99.90
16200;DHT22;8207;52.494;4.654;2022-12-29T15:58:43;9.20;99.90
16200;DHT22;8207;52.494;4.654;2022-12-29T16:01:18;9.20;99.90
16200;DHT22;8207;52.494;4.654;2022-12-29T16:03:47;9.10;99.90
16200;DHT22;8207;52.494;4.654;2022-12-29T16:06:32;9.10;99.90
16200;DHT22;8207;52.494;4.654;2022-12-29T16:09:01;9.20;99.90
16200;DHT22;8207;52.494;4.654;2022-12-29T16:11:33;9.10;99.90
16200;DHT22;8207;52.494;4.654;2022-12-29T16:14:01;9.10;99.90
16200;DHT22;8207;52.494;4.654;2022-12-29T16:16:30;9.10;99.90
16200;DHT22;8207;52.494;4.654;2022-12-29T16:19:01;9.10;99.90
16200;DHT22;8207;52.494;4.654;2022-12-29T16:21:33;9.10;99.90
16200;DHT22;8207;52.494;4.654;2022-12-29T16:24:02;9.10;99.90
16200;DHT22;8207;52.494;4.654;2022-12-29T16:26:32;9.10;99.90
16200;DHT22;8207;52.494;4.654;2022-12-29T16:29:00;9.10;99.90